Time;durP1;ratioP1;P1;durP2;ratioP2;P2;SDS_P1;SDS_P2;PMS_P1;PMS_P2;Temp;Humidity;BMP_temperature;BMP_pressure;BME280_temperature;BME280_humidity;BME280_pressure;Samples;Min_cycle;Max_cycle;Signal;HPM_P1;HPM_P2
2022/10/19 00:00:03;;;;;;;14.70;1.65;;;14.60;96.30;;;;;;5071314;28;20024;-76
2022/10/19 00:02:28;;;;;;;11.25;1.63;;;14.60;96.40;;;;;;5071711;28;20029;-75
2022/10/19 00:04:54;;;;;;;8.07;1.58;;;14.60;96.60;;;;;;5071838;28;20031;-75
2022/10/19 00:07:19;;;;;;;5.90;1.50;;;14.50;96.70;;;;;;5071565;28;20028;-75
2022/10/19 00:09:45;;;;;;;20.42;1.45;;;14.20;96.90;;;;;;5071214;28;20043;-75
2022/10/19 00:12:12;;;;;;;4.80;1.20;;;14.30;97.10;;;;;;5058839;28;244109;-76
2022/10/19 00:14:37;;;;;;;4.97;1.15;;;14.40;97.10;;;;;;5060771;28;20082;-75
2022/10/19 00:17:03;;;;;;;7.57;1.35;;;14.50;97.10;;;;;;5072602;28;20101;-75
2022/10/19 00:19:29;;;;;;;6.65;1.60;;;14.50;97.10;;;;;;5071498;28;20327;-76
2022/10/19 00:21:54;;;;;;;11.23;2.00;;;14.50;97.20;;;;;;5072402;28;20036;-75
2022/10/19 00:24:21;;;;;;;8.75;2.65;;;14.50;97.30;;;;;;5072308;28;20033;-77
2022/10/19 00:26:46;;;;;;;12.45;1.50;;;14.40;97.40;;;;;;5071936;28;20046;-75
2022/10/19 00:29:14;;;;;;;12.20;1.60;;;14.30;97.50;;;;;;5072291;28;20103;-74
2022/10/19 00:31:40;;;;;;;13.93;1.65;;;14.40;97.40;;;;;;5072340;28;20025;-76
2022/10/19 00:34:06;;;;;;;6.65;1.45;;;14.40;97.40;;;;;;5070731;28;20351;-76
2022/10/19 00:36:34;;;;;;;6.70;1.50;;;14.40;97.50;;;;;;5071872;28;20121;-75
2022/10/19 00:39:01;;;;;;;7.97;1.45;;;14.40;97.50;;;;;;5072244;28;20405;-76
2022/10/19 00:41:30;;;;;;;8.32;1.25;;;14.40;97.50;;;;;;5070993;28;20425;-74
2022/10/19 00:43:58;;;;;;;10.27;1.95;;;14.40;97.50;;;;;;5072345;28;20024;-76
2022/10/19 00:46:25;;;;;;;11.27;1.83;;;14.40;97.30;;;;;;5072083;28;20033;-76
2022/10/19 00:48:54;;;;;;;7.95;1.38;;;14.40;97.30;;;;;;5072106;28;20094;-76
2022/10/19 00:51:20;;;;;;;18.95;6.20;;;14.50;97.10;;;;;;5071659;28;20045;-75
2022/10/19 00:53:45;;;;;;;7.30;2.70;;;14.30;97.20;;;;;;5072144;28;20032;-77
2022/10/19 00:56:14;;;;;;;10.70;1.75;;;14.40;97.20;;;;;;5072195;28;20370;-75
2022/10/19 00:58:42;;;;;;;7.07;1.45;;;14.30;97.10;;;;;;5071909;28;20032;-75
2022/10/19 01:01:11;;;;;;;7.75;1.45;;;14.30;97.20;;;;;;5071657;28;20033;-77
2022/10/19 01:03:38;;;;;;;11.38;1.27;;;14.30;97.20;;;;;;5070296;28;20421;-75
2022/10/19 01:06:04;;;;;;;9.23;1.63;;;14.30;97.20;;;;;;5071415;28;20025;-75
2022/10/19 01:08:29;;;;;;;11.00;1.60;;;14.30;97.20;;;;;;5071205;28;20077;-75
2022/10/19 01:11:01;;;;;;;7.28;1.27;;;14.20;97.20;;;;;;5072062;28;20056;-75
2022/10/19 01:13:29;;;;;;;11.07;1.27;;;14.20;97.20;;;;;;5069832;28;20073;-75
2022/10/19 01:16:02;;;;;;;9.85;1.58;;;14.10;97.40;;;;;;5071091;28;20536;-76
2022/10/19 01:18:34;;;;;;;7.80;1.38;;;14.00;97.60;;;;;;5071151;28;20470;-76
2022/10/19 01:21:08;;;;;;;7.10;1.30;;;14.00;97.40;;;;;;5069918;28;20028;-77
2022/10/19 01:23:58;;;;;;;5.05;1.23;;;14.10;97.40;;;;;;5070736;28;20028;-76
2022/10/19 01:26:48;;;;;;;11.70;1.67;;;13.90;97.50;;;;;;5070622;28;20384;-76
2022/10/19 01:29:37;;;;;;;6.70;1.42;;;13.90;97.50;;;;;;5070136;28;20052;-76
2022/10/19 01:32:12;;;;;;;7.18;1.40;;;13.90;97.50;;;;;;5062085;28;20071;-77
2022/10/19 01:34:46;;;;;;;10.30;1.45;;;13.90;97.50;;;;;;5071138;28;20024;-77
2022/10/19 01:37:45;;;;;;;7.20;1.35;;;13.90;97.50;;;;;;5071364;28;20060;-78
2022/10/19 01:40:34;;;;;;;9.65;1.90;;;14.00;97.50;;;;;;5070936;28;20039;-76
2022/10/19 01:43:08;;;;;;;10.50;1.88;;;14.00;97.40;;;;;;5070782;28;20036;-77
2022/10/19 01:45:59;;;;;;;10.13;1.80;;;14.00;97.40;;;;;;5070887;28;20029;-76
2022/10/19 01:48:29;;;;;;;8.02;1.38;;;14.00;97.40;;;;;;5070896;28;20021;-77
2022/10/19 01:51:01;;;;;;;11.23;1.30;;;13.90;97.40;;;;;;5070645;28;20025;-76
2022/10/19 01:53:32;;;;;;;7.30;1.42;;;13.70;97.70;;;;;;5070285;28;20035;-74
2022/10/19 01:56:00;;;;;;;11.40;1.40;;;13.80;97.70;;;;;;5071122;28;20012;-76
2022/10/19 01:58:30;;;;;;;9.48;1.70;;;13.80;97.70;;;;;;5070656;28;20084;-76
2022/10/19 02:01:00;;;;;;;8.15;1.27;;;13.80;98.10;;;;;;5070823;28;20045;-76
2022/10/19 02:03:27;;;;;;;8.43;1.80;;;13.80;97.90;;;;;;5070522;28;20033;-76
2022/10/19 02:05:53;;;;;;;12.85;1.98;;;13.80;98.00;;;;;;5069514;28;20025;-77
2022/10/19 02:08:35;;;;;;;7.70;1.90;;;13.70;98.10;;;;;;5071309;28;20020;-76
2022/10/19 02:11:02;;;;;;;7.72;2.17;;;13.70;98.10;;;;;;5069491;28;20373;-76
2022/10/19 02:13:29;;;;;;;14.85;2.88;;;13.70;98.10;;;;;;5070476;28;20085;-77
2022/10/19 02:16:00;;;;;;;5.97;1.85;;;13.80;98.10;;;;;;5070584;28;20040;-76
2022/10/19 02:18:34;;;;;;;14.73;2.65;;;13.80;98.10;;;;;;5070426;28;20056;-76
2022/10/19 02:21:02;;;;;;;14.48;2.53;;;13.90;98.00;;;;;;5070151;28;20033;-77
2022/10/19 02:23:28;;;;;;;8.27;3.03;;;13.80;98.10;;;;;;5070324;28;20157;-77
2022/10/19 02:25:54;;;;;;;9.35;2.78;;;13.70;98.30;;;;;;5070816;28;20103;-77
2022/10/19 02:28:21;;;;;;;9.98;2.85;;;13.70;98.40;;;;;;5070338;28;20061;-77
2022/10/19 02:30:47;;;;;;;8.68;3.15;;;13.70;98.40;;;;;;5070478;28;20056;-76
2022/10/19 02:33:13;;;;;;;11.95;3.10;;;13.80;98.40;;;;;;5070348;28;20059;-77
2022/10/19 02:35:39;;;;;;;10.95;2.72;;;13.90;98.30;;;;;;5070330;28;20039;-76
2022/10/19 02:38:09;;;;;;;8.55;2.67;;;13.80;98.30;;;;;;5070568;28;20020;-77
2022/10/19 02:40:41;;;;;;;8.98;2.65;;;13.90;98.30;;;;;;5068875;28;20040;-76
2022/10/19 02:43:12;;;;;;;10.80;2.72;;;13.80;98.40;;;;;;5069028;28;20051;-77
2022/10/19 02:45:48;;;;;;;9.48;3.30;;;13.80;98.50;;;;;;5070066;28;20538;-76
2022/10/19 02:48:19;;;;;;;11.23;2.58;;;14.00;98.50;;;;;;5070219;28;20469;-77
2022/10/19 02:50:46;;;;;;;6.70;2.35;;;13.80;98.40;;;;;;5068920;28;20043;-76
2022/10/19 02:53:13;;;;;;;9.70;2.40;;;14.00;98.40;;;;;;5069433;28;20025;-77
2022/10/19 02:55:39;;;;;;;16.63;2.85;;;13.80;98.50;;;;;;5070009;28;20056;-76
2022/10/19 02:58:05;;;;;;;10.40;2.83;;;13.90;98.40;;;;;;5070105;28;20032;-76
2022/10/19 03:00:32;;;;;;;9.40;2.80;;;13.90;98.40;;;;;;5069801;28;20037;-77
2022/10/19 03:02:57;;;;;;;9.60;2.90;;;14.00;98.30;;;;;;5069915;28;20032;-77
2022/10/19 03:05:23;;;;;;;6.60;2.22;;;14.00;98.40;;;;;;5071591;28;20475;-77
2022/10/19 03:07:49;;;;;;;11.27;2.70;;;14.00;98.40;;;;;;5073993;28;20016;-76
2022/10/19 03:10:15;;;;;;;9.90;2.25;;;13.90;98.40;;;;;;5073823;28;20044;-77
2022/10/19 03:12:40;;;;;;;9.10;2.20;;;14.00;98.40;;;;;;5073335;28;20130;-77
2022/10/19 03:15:07;;;;;;;13.35;2.90;;;14.00;98.20;;;;;;5073777;28;20086;-77
2022/10/19 03:17:32;;;;;;;8.40;2.38;;;14.00;98.20;;;;;;5073424;28;20455;-77
2022/10/19 03:19:58;;;;;;;9.63;2.30;;;14.10;98.20;;;;;;5074213;28;20099;-76
2022/10/19 03:22:24;;;;;;;8.18;2.20;;;14.10;98.20;;;;;;5073314;28;20047;-76
2022/10/19 03:24:49;;;;;;;7.70;1.92;;;14.10;98.20;;;;;;5073418;28;20067;-76
2022/10/19 03:27:15;;;;;;;10.40;1.83;;;14.10;98.30;;;;;;5073320;28;20035;-76
2022/10/19 03:29:41;;;;;;;10.63;2.20;;;14.00;98.40;;;;;;5073270;28;20490;-75
2022/10/19 03:32:07;;;;;;;14.63;2.05;;;14.10;98.30;;;;;;5073543;28;20399;-76
2022/10/19 03:34:32;;;;;;;10.25;1.90;;;14.10;98.30;;;;;;5073261;28;20033;-77
2022/10/19 03:36:58;;;;;;;10.10;1.98;;;14.10;98.30;;;;;;5073258;28;20344;-75
2022/10/19 03:39:24;;;;;;;9.35;1.95;;;14.10;98.40;;;;;;5072910;28;20428;-77
2022/10/19 03:41:50;;;;;;;7.95;2.35;;;14.10;98.40;;;;;;5072982;28;20063;-75
2022/10/19 03:44:17;;;;;;;9.23;1.80;;;13.90;98.50;;;;;;5073536;28;20079;-76
2022/10/19 03:46:42;;;;;;;8.27;1.70;;;14.00;98.40;;;;;;5072967;28;20051;-76
2022/10/19 03:49:10;;;;;;;7.32;1.92;;;14.10;98.40;;;;;;5072097;28;20478;-75
2022/10/19 03:51:36;;;;;;;10.95;1.73;;;14.10;98.30;;;;;;5072950;28;20340;-74
2022/10/19 03:54:07;;;;;;;5.40;1.48;;;14.20;98.30;;;;;;5072759;28;20371;-77
2022/10/19 03:56:34;;;;;;;8.77;2.03;;;14.20;98.30;;;;;;5071666;28;20063;-78
2022/10/19 03:59:01;;;;;;;13.40;2.05;;;14.10;98.30;;;;;;5072059;28;20422;-78
2022/10/19 04:01:29;;;;;;;7.18;1.60;;;14.10;98.30;;;;;;5072740;28;20043;-77
2022/10/19 04:03:56;;;;;;;;;;;14.10;98.40;;;;;;5072087;28;20463;-78
2022/10/19 04:06:27;;;;;;;5.80;1.58;;;14.10;98.50;;;;;;5072635;28;20003;-77
2022/10/19 04:08:53;;;;;;;7.13;1.83;;;14.10;98.50;;;;;;5072913;28;20090;-77
2022/10/19 04:11:22;;;;;;;11.93;1.98;;;14.10;98.50;;;;;;5073236;28;20021;-77
2022/10/19 04:13:51;;;;;;;13.25;1.92;;;14.10;98.50;;;;;;5072346;28;20128;-77
2022/10/19 04:16:17;;;;;;;9.60;1.95;;;14.10;98.40;;;;;;5071545;28;20037;-77
2022/10/19 04:18:43;;;;;;;4.15;1.55;;;14.20;98.50;;;;;;5072435;28;20029;-76
2022/10/19 04:21:36;;;;;;;7.93;1.50;;;14.10;98.50;;;;;;5072275;28;20477;-77
2022/10/19 04:24:05;;;;;;;8.45;1.40;;;14.20;98.50;;;;;;5070929;28;20461;-77
2022/10/19 04:26:31;;;;;;;4.13;2.00;;;13.90;98.80;;;;;;5072200;28;20032;-77
2022/10/19 04:28:58;;;;;;;7.70;1.85;;;14.00;99.10;;;;;;5071611;28;20027;-78
2022/10/19 04:31:24;;;;;;;6.78;2.03;;;14.10;98.70;;;;;;5070936;28;20075;-77
2022/10/19 04:33:50;;;;;;;4.15;1.42;;;14.10;98.50;;;;;;5072076;28;20609;-77
2022/10/19 04:36:15;;;;;;;4.65;1.55;;;14.00;98.60;;;;;;5072312;28;20364;-76
2022/10/19 04:38:41;;;;;;;6.47;1.70;;;14.10;98.70;;;;;;5072132;28;20161;-77
2022/10/19 04:41:10;;;;;;;6.53;1.70;;;14.20;98.50;;;;;;5072419;28;20033;-77
2022/10/19 04:43:36;;;;;;;7.85;1.88;;;14.20;98.50;;;;;;5072148;28;20423;-76
2022/10/19 04:46:09;;;;;;;12.00;2.13;;;14.20;98.50;;;;;;5071975;28;20048;-76
2022/10/19 04:48:36;;;;;;;7.22;1.83;;;14.20;98.50;;;;;;5071674;28;20366;-76
2022/10/19 04:51:03;;;;;;;15.18;2.17;;;14.20;98.40;;;;;;5071321;28;20153;-77
2022/10/19 04:53:29;;;;;;;5.90;1.40;;;14.20;98.40;;;;;;5071638;28;20025;-76
2022/10/19 04:55:55;;;;;;;8.93;1.60;;;14.30;98.40;;;;;;5071007;28;20458;-77
2022/10/19 04:58:21;;;;;;;8.02;1.75;;;14.30;98.50;;;;;;5071480;28;20036;-76
2022/10/19 05:00:47;;;;;;;6.95;1.63;;;14.20;98.40;;;;;;5071491;28;20044;-76
2022/10/19 05:03:12;;;;;;;8.75;2.10;;;14.20;98.50;;;;;;5071540;28;20056;-76
2022/10/19 05:05:38;;;;;;;10.63;1.73;;;14.20;98.50;;;;;;5071362;28;20327;-76
2022/10/19 05:08:04;;;;;;;14.82;2.22;;;14.20;98.40;;;;;;5072148;28;20021;-76
2022/10/19 05:10:30;;;;;;;6.55;2.13;;;14.30;98.40;;;;;;5070965;28;20097;-76
2022/10/19 05:12:56;;;;;;;8.55;1.83;;;14.20;98.30;;;;;;5071071;28;20374;-76
2022/10/19 05:15:22;;;;;;;7.82;1.60;;;14.20;98.30;;;;;;5071146;28;20052;-75
2022/10/19 05:17:47;;;;;;;5.63;1.25;;;14.30;98.30;;;;;;5070443;28;20043;-77
2022/10/19 05:20:13;;;;;;;6.80;1.90;;;14.30;98.30;;;;;;5071630;28;20445;-76
2022/10/19 05:22:39;;;;;;;8.52;1.73;;;14.40;98.20;;;;;;5070124;28;20478;-77
2022/10/19 05:25:06;;;;;;;10.55;1.70;;;14.40;98.20;;;;;;5071237;28;20028;-76
2022/10/19 05:27:32;;;;;;;10.75;2.10;;;14.40;98.50;;;;;;5069907;28;20466;-77
2022/10/19 05:29:58;;;;;;;8.98;2.17;;;14.30;98.10;;;;;;5070801;28;20066;-76
2022/10/19 05:32:23;;;;;;;7.75;1.42;;;14.30;98.10;;;;;;5071628;28;20056;-76
2022/10/19 05:34:49;;;;;;;11.32;1.50;;;14.40;98.10;;;;;;5069889;28;20032;-76
2022/10/19 05:37:16;;;;;;;9.00;1.85;;;14.30;98.00;;;;;;5071105;28;20036;-76
2022/10/19 05:39:42;;;;;;;9.13;2.00;;;14.40;98.00;;;;;;5071142;28;20041;-77
2022/10/19 05:42:08;;;;;;;15.18;1.80;;;14.30;97.90;;;;;;5071061;28;20374;-77
2022/10/19 05:44:34;;;;;;;10.00;1.80;;;14.40;98.00;;;;;;5070789;28;20020;-76
2022/10/19 05:47:01;;;;;;;4.88;1.50;;;14.40;98.00;;;;;;5070400;28;20052;-76
2022/10/19 05:49:26;;;;;;;8.23;1.55;;;14.40;97.90;;;;;;5070028;28;20135;-77
2022/10/19 05:51:53;;;;;;;15.73;2.40;;;14.40;97.80;;;;;;5070523;28;20358;-76
2022/10/19 05:54:19;;;;;;;8.95;1.50;;;14.40;97.80;;;;;;5071088;28;20048;-75
2022/10/19 05:56:45;;;;;;;13.48;2.50;;;14.40;97.80;;;;;;5070814;28;20021;-75
2022/10/19 05:59:16;;;;;;;6.50;1.27;;;14.40;97.80;;;;;;5071158;28;20450;-76
2022/10/19 06:01:42;;;;;;;5.75;1.90;;;14.40;97.70;;;;;;5070419;28;20083;-75
2022/10/19 06:04:09;;;;;;;6.65;1.23;;;14.40;97.70;;;;;;5069282;28;20470;-77
2022/10/19 06:06:35;;;;;;;10.93;1.80;;;14.50;97.70;;;;;;5069526;28;20024;-77
2022/10/19 06:09:02;;;;;;;6.93;1.40;;;14.40;97.70;;;;;;5073186;28;20044;-76
2022/10/19 06:11:33;;;;;;;10.30;1.80;;;14.50;97.70;;;;;;5083781;28;20028;-76
2022/10/19 06:14:01;;;;;;;13.48;1.67;;;14.50;97.60;;;;;;5083142;28;20060;-77
2022/10/19 06:16:29;;;;;;;5.72;1.30;;;14.40;97.70;;;;;;5082820;28;20488;-74
2022/10/19 06:18:55;;;;;;;;;;;14.40;97.90;;;;;;5082649;28;20039;-77
2022/10/19 06:21:24;;;;;;;9.32;1.90;;;14.40;97.80;;;;;;5083109;28;20000;-77
2022/10/19 06:23:54;;;;;;;6.85;1.33;;;14.40;98.00;;;;;;5070845;28;20024;-77
2022/10/19 06:26:21;;;;;;;5.80;1.88;;;14.40;98.00;;;;;;5071411;28;20021;-76
2022/10/19 06:28:48;;;;;;;7.93;1.48;;;14.40;98.00;;;;;;5070841;28;20520;-77
2022/10/19 06:31:14;;;;;;;10.90;1.90;;;14.40;98.00;;;;;;5070491;28;20037;-76
2022/10/19 06:33:42;;;;;;;14.60;1.63;;;14.40;98.20;;;;;;5070606;28;20051;-77
2022/10/19 06:36:13;;;;;;;9.50;1.55;;;14.40;98.20;;;;;;5071075;28;20387;-77
2022/10/19 06:38:39;;;;;;;14.70;1.40;;;14.40;98.20;;;;;;5071469;28;20020;-77
2022/10/19 06:41:05;;;;;;;10.90;1.75;;;14.40;98.30;;;;;;5075771;28;20044;-80
2022/10/19 06:43:31;;;;;;;10.00;1.50;;;14.40;98.30;;;;;;5075045;28;20036;-79
2022/10/19 06:45:57;;;;;;;16.27;2.25;;;14.40;98.30;;;;;;5075727;28;20031;-77
2022/10/19 06:48:23;;;;;;;11.68;1.75;;;14.40;98.30;;;;;;5075601;28;20355;-79
2022/10/19 06:50:56;;;;;;;6.70;1.45;;;14.40;98.10;;;;;;5074703;28;20089;-76
2022/10/19 06:53:22;;;;;;;10.13;1.75;;;14.40;98.20;;;;;;5074891;28;20017;-76
2022/10/19 06:55:48;;;;;;;8.05;1.63;;;14.40;98.40;;;;;;5074761;28;20490;-76
2022/10/19 06:58:13;;;;;;;6.57;1.35;;;14.40;98.50;;;;;;5074235;28;20138;-77
2022/10/19 07:00:40;;;;;;;13.90;1.70;;;14.40;98.40;;;;;;5073945;28;20485;-77
2022/10/19 07:03:06;;;;;;;6.75;1.48;;;14.40;98.50;;;;;;5072700;28;20060;-78
2022/10/19 07:05:31;;;;;;;16.30;2.53;;;14.40;98.30;;;;;;5074037;28;20055;-78
2022/10/19 07:07:57;;;;;;;10.57;2.03;;;14.40;98.20;;;;;;5074272;28;20103;-78
2022/10/19 07:10:23;;;;;;;4.93;1.48;;;14.40;98.20;;;;;;5073750;28;20350;-76
2022/10/19 07:12:49;;;;;;;9.43;1.63;;;14.50;98.20;;;;;;5073844;28;20124;-78
2022/10/19 07:15:14;;;;;;;7.13;1.63;;;14.40;97.80;;;;;;5073514;28;20119;-77
2022/10/19 07:17:40;;;;;;;9.88;2.00;;;14.50;98.00;;;;;;5073662;28;20446;-76
2022/10/19 07:20:06;;;;;;;8.60;2.28;;;14.50;97.90;;;;;;5074187;28;20029;-76
2022/10/19 07:22:32;;;;;;;8.43;1.30;;;14.40;97.90;;;;;;5073511;28;20090;-77
2022/10/19 07:24:58;;;;;;;17.58;2.65;;;14.50;97.70;;;;;;5073796;28;20033;-76
2022/10/19 07:27:23;;;;;;;9.27;1.45;;;14.50;97.70;;;;;;5064913;28;20336;-74
2022/10/19 07:29:49;;;;;;;14.55;2.17;;;14.40;97.40;;;;;;5053281;28;20451;-79
2022/10/19 07:32:15;;;;;;;6.18;1.27;;;14.60;97.40;;;;;;5054059;28;20342;-76
2022/10/19 07:34:41;;;;;;;6.28;1.02;;;14.50;96.90;;;;;;5053412;28;20037;-75
2022/10/19 07:37:06;;;;;;;14.30;1.58;;;14.50;95.90;;;;;;5053320;28;20037;-75
2022/10/19 07:39:32;;;;;;;10.20;1.65;;;14.50;95.90;;;;;;5052964;28;20107;-73
2022/10/19 07:41:57;;;;;;;6.25;1.33;;;14.50;95.70;;;;;;5052975;28;20075;-73
2022/10/19 07:44:23;;;;;;;9.52;1.20;;;14.60;95.30;;;;;;5053384;28;20115;-74
2022/10/19 07:46:49;;;;;;;9.25;2.05;;;14.50;95.30;;;;;;5053176;28;20033;-73
2022/10/19 07:49:17;;;;;;;11.48;1.67;;;14.60;94.80;;;;;;5052994;28;20025;-73
2022/10/19 07:51:43;;;;;;;10.48;1.88;;;14.60;94.60;;;;;;5052610;28;20060;-73
2022/10/19 07:54:09;;;;;;;8.05;1.35;;;14.60;94.60;;;;;;5052955;28;20075;-73
2022/10/19 07:56:35;;;;;;;21.48;8.73;;;14.60;94.70;;;;;;5052989;28;20020;-73
2022/10/19 07:59:03;;;;;;;6.13;1.95;;;14.60;94.50;;;;;;5053564;28;20021;-74
2022/10/19 08:01:31;;;;;;;7.28;1.52;;;14.60;94.50;;;;;;5068314;28;20102;-73
2022/10/19 08:03:59;;;;;;;16.17;5.47;;;14.60;94.60;;;;;;5068270;28;20036;-74
2022/10/19 08:06:28;;;;;;;8.55;2.40;;;14.70;94.60;;;;;;5068394;28;20473;-73
2022/10/19 08:08:54;;;;;;;14.57;2.35;;;14.60;93.90;;;;;;5068258;28;20040;-76
2022/10/19 08:11:25;;;;;;;7.05;1.23;;;14.60;94.10;;;;;;5053191;28;20036;-72
2022/10/19 08:13:52;;;;;;;15.18;1.55;;;14.60;94.10;;;;;;5052436;28;20064;-74
2022/10/19 08:16:24;;;;;;;8.40;1.60;;;14.60;94.00;;;;;;5068275;28;20029;-75
2022/10/19 08:18:51;;;;;;;10.35;1.30;;;14.60;93.40;;;;;;5068034;28;20454;-74
2022/10/19 08:21:17;;;;;;;5.47;1.15;;;14.50;93.10;;;;;;5052354;28;20119;-74
2022/10/19 08:23:43;;;;;;;9.35;1.30;;;14.60;93.30;;;;;;5052329;28;20151;-74
2022/10/19 08:26:08;;;;;;;8.30;1.02;;;14.60;93.10;;;;;;5052859;28;20565;-74
2022/10/19 08:28:34;;;;;;;4.40;1.27;;;14.50;93.00;;;;;;5052526;28;20052;-77
2022/10/19 08:31:12;;;;;;;6.65;1.10;;;14.50;92.90;;;;;;5052208;28;20037;-73
2022/10/19 08:33:38;;;;;;;5.78;1.73;;;14.50;92.70;;;;;;5052473;28;20103;-74
2022/10/19 08:36:05;;;;;;;11.85;1.80;;;14.50;92.70;;;;;;5051932;28;20035;-73
2022/10/19 08:38:31;;;;;;;7.78;1.02;;;14.50;92.80;;;;;;5052106;28;20514;-76
2022/10/19 08:41:02;;;;;;;13.70;1.77;;;14.50;92.90;;;;;;5052548;28;20117;-75
2022/10/19 08:43:33;;;;;;;11.57;2.33;;;14.60;92.90;;;;;;5051959;28;20125;-73
2022/10/19 08:46:34;;;;;;;10.13;2.05;;;14.60;92.50;;;;;;5051902;28;20447;-74
2022/10/19 08:49:01;;;;;;;5.05;0.77;;;14.60;92.60;;;;;;5023225;28;20036;-75
2022/10/19 08:51:31;;;;;;;3.90;0.80;;;14.50;92.40;;;;;;5051818;28;20230;-74
2022/10/19 08:54:01;;;;;;;4.45;0.95;;;14.50;92.70;;;;;;5051724;28;20269;-75
2022/10/19 08:56:33;;;;;;;4.63;0.80;;;14.60;92.60;;;;;;5051573;28;20431;-72
2022/10/19 08:58:59;;;;;;;4.03;0.60;;;14.70;92.50;;;;;;5052255;28;20171;-74
2022/10/19 09:01:46;;;;;;;7.60;0.80;;;14.70;92.70;;;;;;5066970;28;20543;-74
2022/10/19 09:04:35;;;;;;;6.27;1.00;;;14.70;92.40;;;;;;5051097;28;20032;-72
2022/10/19 09:07:38;;;;;;;101.63;56.47;;;14.80;92.40;;;;;;5051365;28;20088;-73
2022/10/19 09:10:16;;;;;;;7.55;3.95;;;14.80;92.20;;;;;;5049382;28;20091;-75
2022/10/19 09:12:45;;;;;;;4.78;1.10;;;14.90;92.50;;;;;;5051396;28;20067;-75
2022/10/19 09:15:24;;;;;;;3.50;1.33;;;14.90;92.60;;;;;;5066817;28;20033;-76
2022/10/19 09:17:50;;;;;;;4.43;0.82;;;14.90;92.70;;;;;;5051259;28;20155;-78
2022/10/19 09:20:19;;;;;;;4.80;0.82;;;14.90;92.90;;;;;;5050887;28;20025;-74
2022/10/19 09:22:49;;;;;;;8.90;1.60;;;15.00;92.30;;;;;;5051481;28;20116;-77
2022/10/19 09:25:21;;;;;;;3.63;0.60;;;15.10;92.30;;;;;;5050940;28;20036;-77
2022/10/19 09:27:51;;;;;;;6.68;1.00;;;15.10;92.30;;;;;;5050159;28;20041;-74
2022/10/19 09:30:21;;;;;;;10.85;1.35;;;15.10;92.10;;;;;;5051263;28;20355;-77
2022/10/19 09:32:58;;;;;;;1.80;0.65;;;15.10;92.30;;;;;;5066758;28;20041;-74
2022/10/19 09:35:33;;;;;;;3.22;0.75;;;15.20;92.30;;;;;;5051781;28;20106;-77
2022/10/19 09:37:59;;;;;;;1.73;0.77;;;15.20;92.20;;;;;;5051575;28;20061;-76
2022/10/19 09:40:28;;;;;;;5.03;0.63;;;15.30;92.10;;;;;;5051426;28;20029;-75
2022/10/19 09:43:01;;;;;;;7.53;0.98;;;15.30;92.20;;;;;;5066612;28;20079;-77
2022/10/19 09:45:39;;;;;;;5.60;1.77;;;15.30;92.30;;;;;;5050966;28;20119;-75
2022/10/19 09:48:18;;;;;;;10.98;4.97;;;15.30;92.00;;;;;;5050928;28;20067;-76
2022/10/19 09:50:44;;;;;;;11.95;3.97;;;15.30;91.60;;;;;;5066711;28;20126;-77
2022/10/19 09:53:19;;;;;;;3.55;1.00;;;15.30;91.80;;;;;;5067021;28;20170;-78
2022/10/19 09:55:52;;;;;;;13.52;2.25;;;15.30;91.60;;;;;;5050679;28;20127;-74
2022/10/19 09:58:19;;;;;;;5.25;0.93;;;15.30;91.70;;;;;;5050999;28;20040;-76
2022/10/19 10:00:49;;;;;;;5.38;2.90;;;15.30;91.70;;;;;;5066113;28;20032;-76
2022/10/19 10:03:22;;;;;;;6.90;1.90;;;15.40;91.80;;;;;;5050444;28;20025;-77
2022/10/19 10:05:49;;;;;;;10.73;2.88;;;15.50;91.50;;;;;;5066271;28;20029;-75
2022/10/19 10:08:19;;;;;;;5.20;1.00;;;15.40;91.50;;;;;;5051053;28;20025;-76
2022/10/19 10:11:07;;;;;;;1.65;0.68;;;15.40;91.40;;;;;;5051061;28;20021;-81
2022/10/19 10:13:37;;;;;;;3.80;1.30;;;15.30;91.70;;;;;;5067956;28;20407;-76
2022/10/19 10:16:06;;;;;;;4.50;1.15;;;15.40;92.00;;;;;;5054934;28;20102;-76
2022/10/19 10:18:37;;;;;;;3.60;0.80;;;15.40;91.80;;;;;;5055024;28;20033;-76
2022/10/19 10:21:12;;;;;;;1.98;0.90;;;15.40;91.70;;;;;;5054679;28;20037;-75
2022/10/19 10:23:38;;;;;;;4.85;1.08;;;15.40;91.30;;;;;;5054632;28;20458;-75
2022/10/19 10:26:13;;;;;;;5.18;1.65;;;15.30;91.80;;;;;;5054815;28;20155;-75
2022/10/19 10:28:47;;;;;;;6.22;1.48;;;15.30;91.60;;;;;;5054337;28;20059;-77
2022/10/19 10:31:12;;;;;;;6.25;2.53;;;15.40;91.50;;;;;;5054555;28;20040;-76
2022/10/19 10:33:39;;;;;;;4.60;0.90;;;15.40;91.60;;;;;;5054289;28;20033;-75
2022/10/19 10:36:09;;;;;;;6.68;1.08;;;15.50;91.60;;;;;;5056163;28;20104;-77
2022/10/19 10:38:48;;;;;;;1.25;0.63;;;15.50;91.10;;;;;;5055883;28;20029;-76
2022/10/19 10:41:23;;;;;;;9.90;2.88;;;15.50;91.10;;;;;;5071972;28;20470;-75
2022/10/19 10:44:05;;;;;;;11.55;3.90;;;15.50;91.10;;;;;;5056313;28;20029;-79
2022/10/19 10:46:40;;;;;;;10.70;1.50;;;15.50;91.10;;;;;;5070646;28;20037;-77
2022/10/19 10:49:15;;;;;;;8.30;1.40;;;15.50;91.10;;;;;;5055815;28;20454;-77
2022/10/19 10:51:49;;;;;;;6.95;1.17;;;15.50;92.30;;;;;;5054936;28;20420;-78
2022/10/19 10:54:24;;;;;;;7.10;1.23;;;15.60;91.20;;;;;;5057502;28;20413;-78
2022/10/19 10:56:59;;;;;;;3.03;1.17;;;15.60;91.20;;;;;;5056072;28;20451;-75
2022/10/19 10:59:32;;;;;;;4.32;1.20;;;15.70;91.00;;;;;;5055986;28;20450;-77
2022/10/19 11:02:02;;;;;;;2.50;1.13;;;15.70;91.30;;;;;;5055366;28;20025;-76
2022/10/19 11:04:37;;;;;;;4.93;1.00;;;15.80;91.00;;;;;;5055306;28;20033;-76
2022/10/19 11:07:17;;;;;;;6.72;1.05;;;15.80;90.90;;;;;;5055849;28;20040;-77
2022/10/19 11:09:57;;;;;;;4.40;1.25;;;15.80;91.00;;;;;;5073487;28;20032;-76
2022/10/19 11:13:01;;;;;;;12.95;5.07;;;15.70;90.70;;;;;;5057412;28;20045;-77
2022/10/19 11:15:50;;;;;;;11.40;2.67;;;15.70;91.00;;;;;;5057274;28;20037;-76
2022/10/19 11:18:29;;;;;;;4.93;1.60;;;15.60;91.00;;;;;;5071001;28;20029;-76
2022/10/19 11:21:04;;;;;;;4.93;1.15;;;15.70;91.00;;;;;;5055178;28;20122;-75
2022/10/19 11:23:41;;;;;;;6.75;1.10;;;15.80;91.00;;;;;;5055595;28;20027;-76
2022/10/19 11:26:34;;;;;;;5.65;0.70;;;15.90;90.80;;;;;;5056710;28;20106;-76
2022/10/19 11:29:14;;;;;;;2.17;0.80;;;16.00;90.60;;;;;;5056778;28;20033;-77
2022/10/19 11:31:47;;;;;;;4.35;1.00;;;16.10;90.50;;;;;;5055230;28;20230;-75
2022/10/19 11:34:35;;;;;;;3.20;0.68;;;16.30;90.50;;;;;;5055595;28;20127;-76
2022/10/19 11:37:15;;;;;;;4.32;0.90;;;16.50;90.30;;;;;;5055621;28;20605;-76
2022/10/19 11:40:00;;;;;;;6.47;1.58;;;16.60;90.20;;;;;;5056045;28;20549;-76
2022/10/19 11:42:44;;;;;;;12.32;2.95;;;16.70;90.10;;;;;;5054712;28;20178;-76
2022/10/19 11:45:18;;;;;;;9.48;1.55;;;16.80;89.20;;;;;;5054457;28;20040;-78
2022/10/19 11:47:52;;;;;;;4.50;0.90;;;16.70;89.70;;;;;;5068845;28;20025;-77
2022/10/19 11:50:29;;;;;;;3.83;1.13;;;16.80;89.30;;;;;;5053668;28;20347;-75
2022/10/19 11:53:09;;;;;;;14.23;1.60;;;16.90;90.40;;;;;;5054072;28;20445;-77
2022/10/19 11:55:45;;;;;;;4.38;1.17;;;16.90;88.40;;;;;;5053418;28;20029;-76
2022/10/19 11:58:11;;;;;;;4.70;1.20;;;17.10;89.50;;;;;;5052869;28;20036;-76
2022/10/19 12:01:17;;;;;;;5.18;0.80;;;17.10;87.70;;;;;;5052519;28;20025;-76
2022/10/19 12:04:28;;;;;;;3.03;1.08;;;17.10;87.70;;;;;;5052214;28;20044;-76
2022/10/19 12:07:09;;;;;;;5.13;1.13;;;17.20;86.90;;;;;;5028802;28;20021;-76
2022/10/19 12:09:44;;;;;;;4.63;1.20;;;17.50;88.40;;;;;;5067898;28;20086;-76
2022/10/19 12:12:23;;;;;;;6.13;1.05;;;17.40;86.20;;;;;;5052266;28;20441;-76
2022/10/19 12:14:55;;;;;;;3.00;1.00;;;17.40;87.10;;;;;;5052721;28;20033;-76
2022/10/19 12:17:29;;;;;;;5.68;1.15;;;17.30;87.20;;;;;;5052768;28;20099;-76
2022/10/19 12:20:00;;;;;;;8.15;2.22;;;17.20;87.30;;;;;;5052194;28;20483;-76
2022/10/19 12:22:28;;;;;;;9.48;2.78;;;17.20;86.90;;;;;;5052536;28;20051;-77
2022/10/19 12:24:56;;;;;;;4.75;1.60;;;17.10;87.60;;;;;;5052267;28;20043;-76
2022/10/19 12:27:49;;;;;;;11.45;1.58;;;17.10;87.30;;;;;;5052632;28;20441;-76
2022/10/19 12:30:21;;;;;;;4.82;1.33;;;17.10;87.40;;;;;;5049578;28;20044;-75
2022/10/19 12:33:11;;;;;;;4.55;1.88;;;17.00;87.80;;;;;;5051968;28;20711;-76
2022/10/19 12:35:56;;;;;;;4.35;1.45;;;17.10;87.70;;;;;;5051981;28;20029;-77
2022/10/19 12:38:44;;;;;;;3.63;1.52;;;17.00;87.60;;;;;;5051569;28;20124;-78
2022/10/19 12:41:33;;;;;;;7.90;1.80;;;17.00;87.30;;;;;;5043753;28;20033;-76
2022/10/19 12:44:25;;;;;;;7.43;1.27;;;17.00;87.00;;;;;;5041011;28;20068;-77
2022/10/19 12:46:58;;;;;;;3.38;0.82;;;16.90;87.00;;;;;;5024311;28;20382;-77
2022/10/19 12:49:34;;;;;;;7.07;2.22;;;16.90;87.00;;;;;;5052193;28;20025;-75
2022/10/19 12:52:01;;;;;;;4.07;1.13;;;16.90;87.10;;;;;;5051939;28;20043;-76
2022/10/19 12:54:32;;;;;;;4.45;1.20;;;16.80;86.80;;;;;;5051787;28;20051;-76
2022/10/19 12:57:01;;;;;;;4.15;0.82;;;16.70;87.00;;;;;;5051513;28;20044;-76
2022/10/19 12:59:33;;;;;;;;;;;16.60;87.70;;;;;;5052054;28;20025;-71
2022/10/19 13:02:03;;;;;;;7.43;0.80;;;16.60;88.00;;;;;;5052203;28;19947;-78